Time,TemperatureF,DewpointF,PressureIn,WindDirection,WindDirectionDegrees,WindSpeedMPH,WindSpeedGustMPH,Humidity,HourlyPrecipIn,Conditions,Clouds,dailyrainin,SoftwareType,DateUTC
2013-08-24 00:00:00,69.0,60.0,29.81,SSE,165,5.3,7.0,73,0.00,CLR,SKC,0.00,WeatherDisplay:10.37,2013-08-24 05:00:00,
2013-08-24 00:05:00,69.0,60.0,29.81,SSE,160,5.5,7.0,73,0.00,CLR,SKC,0.00,WeatherDisplay:10.37,2013-08-24 05:05:00,
2013-08-24 00:10:00,69.0,60.0,29.81,South,169,5.9,10.4,73,0.00,CLR,SKC,0.00,WeatherDisplay:10.37,2013-08-24 05:10:00,
2013-08-24 00:15:00,68.9,59.9,29.81,SSE,165,6.4,8.0,73,0.00,CLR,SKC,0.00,WeatherDisplay:10.37,2013-08-24 05:15:00,
2013-08-24 00:20:00,68.8,59.8,29.82,SSE,164,4.8,7.0,73,0.00,CLR,SKC,0.00,WeatherDisplay:10.37,2013-08-24 05:20:00,
2013-08-24 00:25:00,68.8,59.8,29.82,SSE,156,6.1,10.0,73,0.00,CLR,SKC,0.00,WeatherDisplay:10.37,2013-08-24 05:25:00,
2013-08-24 00:30:00,68.8,59.8,29.81,SSE,153,5.0,10.4,73,0.00,CLR,SKC,0.00,WeatherDisplay:10.37,2013-08-24 05:30:00,
2013-08-24 00:35:00,68.8,59.8,29.81,SSE,157,5.4,8.0,73,0.00,CLR,SKC,0.00,WeatherDisplay:10.37,2013-08-24 05:35:00,
2013-08-24 00:40:00,68.7,59.7,29.82,SSE,155,4.9,8.1,73,0.00,CLR,SKC,0.00,WeatherDisplay:10.37,2013-08-24 05:40:00,
2013-08-24 00:45:00,68.6,59.6,29.82,SSE,155,4.5,6.0,73,0.00,CLR,SKC,0.00,WeatherDisplay:10.37,2013-08-24 05:45:00,
2013-08-24 00:50:00,68.4,59.4,29.82,SSE,156,5.6,8.1,73,0.00,CLR,SKC,0.00,WeatherDisplay:10.37,2013-08-24 05:50:00,
2013-08-24 00:55:00,68.3,59.3,29.82,SSE,155,5.1,7.0,73,0.00,CLR,SKC,0.00,WeatherDisplay:10.37,2013-08-24 05:55:00,
2013-08-24 01:00:00,68.2,59.2,29.82,SSE,155,5.2,6.9,73,0.00,CLR,SKC,0.00,WeatherDisplay:10.37,2013-08-24 06:00:00,
2013-08-24 01:05:00,68.2,59.2,29.82,SSE,159,5.8,8.0,73,0.00,CLR,SKC,0.00,WeatherDisplay:10.37,2013-08-24 06:05:00,
2013-08-24 01:10:00,68.1,59.1,29.82,SSE,160,4.0,6.9,73,0.00,CLR,SKC,0.00,WeatherDisplay:10.37,2013-08-24 06:10:00,
2013-08-24 01:15:00,68.0,59.0,29.82,SSE,160,4.6,6.0,73,0.00,CLR,SKC,0.00,WeatherDisplay:10.37,2013-08-24 06:15:00,
2013-08-24 01:20:00,67.9,58.9,29.82,SSE,160,5.5,8.0,73,0.00,CLR,SKC,0.00,WeatherDisplay:10.37,2013-08-24 06:20:00,
2013-08-24 01:25:00,67.8,58.8,29.82,SSE,160,4.8,7.0,73,0.00,CLR,SKC,0.00,WeatherDisplay:10.37,2013-08-24 06:25:00,
2013-08-24 01:30:00,67.6,58.2,29.82,SSE,160,4.8,7.0,72,0.00,CLR,SKC,0.00,WeatherDisplay:10.37,2013-08-24 06:30:00,
2013-08-24 01:35:00,67.6,58.2,29.82,SSE,159,5.3,7.0,72,0.00,CLR,SKC,0.00,WeatherDisplay:10.37,2013-08-24 06:35:00,
2013-08-24 01:40:00,67.5,58.2,29.82,SSE,159,4.3,6.9,72,0.00,CLR,SKC,0.00,WeatherDisplay:10.37,2013-08-24 06:40:00,
2013-08-24 01:45:00,67.4,58.1,29.82,SSE,159,5.3,7.0,72,0.00,CLR,SKC,0.00,WeatherDisplay:10.37,2013-08-24 06:45:00,
2013-08-24 01:50:00,67.4,58.1,29.82,SSE,159,4.6,6.9,72,0.00,CLR,SKC,0.00,WeatherDisplay:10.37,2013-08-24 06:50:00,
2013-08-24 01:55:00,67.3,58.0,29.82,SSE,159,4.4,6.9,72,0.00,CLR,SKC,0.00,WeatherDisplay:10.37,2013-08-24 06:55:00,
2013-08-24 02:00:00,67.3,58.0,29.82,SSE,159,4.7,6.0,72,0.00,CLR,SKC,0.00,WeatherDisplay:10.37,2013-08-24 07:00:00,
2013-08-24 02:05:00,67.2,57.9,29.82,SSE,158,5.2,6.0,72,0.00,CLR,SKC,0.00,WeatherDisplay:10.37,2013-08-24 07:05:00,
2013-08-24 02:10:00,67.2,57.9,29.82,SSE,159,4.9,7.0,72,0.00,CLR,SKC,0.00,WeatherDisplay:10.37,2013-08-24 07:10:00,
2013-08-24 02:15:00,67.2,57.9,29.82,SSE,159,5.9,8.1,72,0.00,CLR,SKC,0.00,WeatherDisplay:10.37,2013-08-24 07:15:00,
2013-08-24 02:20:00,67.3,58.0,29.82,SSE,159,4.6,8.1,72,0.00,CLR,SKC,0.00,WeatherDisplay:10.37,2013-08-24 07:20:00,
2013-08-24 02:25:00,67.3,58.3,29.82,SSE,165,5.3,9.0,73,0.00,CLR,SKC,0.00,WeatherDisplay:10.37,2013-08-24 07:25:00,
2013-08-24 02:30:00,67.3,58.3,29.82,SSE,153,6.6,10.0,73,0.00,CLR,SKC,0.00,WeatherDisplay:10.37,2013-08-24 07:30:00,
2013-08-24 02:35:00,67.4,58.4,29.82,SSE,161,6.8,10.4,73,0.00,CLR,SKC,0.00,WeatherDisplay:10.37,2013-08-24 07:35:00,
2013-08-24 02:40:00,67.5,58.5,29.82,SSE,151,6.0,8.1,73,0.00,CLR,SKC,0.00,WeatherDisplay:10.37,2013-08-24 07:40:00,
2013-08-24 02:45:00,67.6,58.6,29.82,SSE,158,6.4,9.2,73,0.00,CLR,SKC,0.00,WeatherDisplay:10.37,2013-08-24 07:45:00,
2013-08-24 02:50:00,67.6,58.6,29.82,SSE,157,4.9,9.2,73,0.00,CLR,SKC,0.00,WeatherDisplay:10.37,2013-08-24 07:50:00,
2013-08-24 02:55:00,67.6,58.6,29.82,SE,146,5.1,10.4,73,0.00,CLR,SKC,0.00,WeatherDisplay:10.37,2013-08-24 07:55:00,
2013-08-24 03:00:00,67.6,58.6,29.82,SE,144,5.8,9.2,73,0.00,CLR,SKC,0.00,WeatherDisplay:10.37,2013-08-24 08:00:00,
2013-08-24 03:05:00,67.6,58.6,29.82,SE,144,4.4,6.9,73,0.00,SCT,SKC,0.00,WeatherDisplay:10.37,2013-08-24 08:05:00,
2013-08-24 03:10:00,67.5,58.5,29.82,SE,144,4.8,7.0,73,0.00,SCT,SKC,0.00,WeatherDisplay:10.37,2013-08-24 08:10:00,
2013-08-24 03:15:00,67.4,58.4,29.82,SE,145,3.9,5.8,73,0.00,SCT,SKC,0.00,WeatherDisplay:10.37,2013-08-24 08:15:00,
2013-08-24 03:20:00,67.4,58.4,29.82,SSE,153,6.1,8.0,73,0.00,SCT,SKC,0.00,WeatherDisplay:10.37,2013-08-24 08:20:00,
2013-08-24 03:25:00,67.6,58.6,29.82,SSE,154,4.3,7.0,73,0.00,SCT,SKC,0.00,WeatherDisplay:10.37,2013-08-24 08:25:00,
2013-08-24 03:30:00,67.6,58.6,29.82,SSE,157,5.6,8.0,73,0.00,SCT,SKC,0.00,WeatherDisplay:10.37,2013-08-24 08:30:00,
2013-08-24 03:35:00,67.5,58.5,29.82,SSE,156,6.1,8.0,73,0.00,SCT,SKC,0.00,WeatherDisplay:10.37,2013-08-24 08:35:00,
2013-08-24 03:40:00,67.5,58.5,29.82,SSE,156,4.7,6.9,73,0.00,SCT,SKC,0.00,WeatherDisplay:10.37,2013-08-24 08:40:00,
2013-08-24 03:45:00,67.5,58.5,29.82,SSE,156,5.4,9.0,73,0.00,CLR,SKC,0.00,WeatherDisplay:10.37,2013-08-24 08:45:00,
2013-08-24 03:50:00,67.5,58.5,29.82,SSE,155,6.5,8.1,73,0.00,CLR,SKC,0.00,WeatherDisplay:10.37,2013-08-24 08:50:00,
2013-08-24 03:55:00,67.4,58.4,29.83,SSE,155,4.8,7.0,73,0.00,CLR,SKC,0.00,WeatherDisplay:10.37,2013-08-24 08:55:00,
2013-08-24 04:00:00,67.4,58.4,29.83,SSE,155,5.9,8.1,73,0.00,CLR,SKC,0.00,WeatherDisplay:10.37,2013-08-24 09:00:00,
2013-08-24 04:05:00,67.5,58.5,29.82,SSE,166,5.2,9.0,73,0.00,CLR,SKC,0.00,WeatherDisplay:10.37,2013-08-24 09:05:00,
2013-08-24 04:10:00,67.6,58.6,29.83,SE,137,7.5,10.0,73,0.00,CLR,SKC,0.00,WeatherDisplay:10.37,2013-08-24 09:10:00,
2013-08-24 04:15:00,67.6,58.6,29.83,SE,144,6.1,8.1,73,0.00,CLR,SKC,0.00,WeatherDisplay:10.37,2013-08-24 09:15:00,
2013-08-24 04:20:00,67.6,58.6,29.83,SSE,154,4.9,8.1,73,0.00,CLR,SKC,0.00,WeatherDisplay:10.37,2013-08-24 09:20:00,
2013-08-24 04:25:00,67.6,58.6,29.83,SSE,148,6.1,8.1,73,0.00,CLR,SKC,0.00,WeatherDisplay:10.37,2013-08-24 09:25:00,
2013-08-24 04:30:00,67.6,58.6,29.83,SSE,155,7.3,9.2,73,0.00,CLR,SKC,0.00,WeatherDisplay:10.37,2013-08-24 09:30:00,
2013-08-24 04:35:00,67.7,58.7,29.83,SE,145,6.3,12.0,73,0.00,CLR,SKC,0.00,WeatherDisplay:10.37,2013-08-24 09:35:00,
2013-08-24 04:40:00,67.6,58.6,29.83,SSE,154,5.9,9.0,73,0.00,CLR,SKC,0.00,WeatherDisplay:10.37,2013-08-24 09:40:00,
2013-08-24 04:45:00,67.6,58.6,29.83,SSE,153,7.8,10.0,73,0.00,CLR,SKC,0.00,WeatherDisplay:10.37,2013-08-24 09:45:00,
2013-08-24 04:50:00,67.6,58.6,29.83,SSE,149,5.3,9.2,73,0.00,CLR,SKC,0.00,WeatherDisplay:10.37,2013-08-24 09:50:00,
2013-08-24 04:55:00,67.6,58.6,29.83,SSE,150,9.8,12.0,73,0.00,CLR,SKC,0.00,WeatherDisplay:10.37,2013-08-24 09:55:00,
2013-08-24 05:00:00,67.6,58.6,29.83,SSE,154,6.1,9.2,73,0.00,CLR,SKC,0.00,WeatherDisplay:10.37,2013-08-24 10:00:00,
2013-08-24 05:05:00,67.6,58.6,29.83,SSE,151,6.9,10.4,73,0.00,CLR,SKC,0.00,WeatherDisplay:10.37,2013-08-24 10:05:00,
2013-08-24 05:10:00,67.6,58.6,29.83,SSE,153,5.6,9.2,73,0.00,CLR,SKC,0.00,WeatherDisplay:10.37,2013-08-24 10:10:00,
2013-08-24 05:15:00,67.6,58.6,29.83,SSE,150,5.5,9.2,73,0.00,CLR,SKC,0.00,WeatherDisplay:10.37,2013-08-24 10:15:00,
2013-08-24 05:20:00,67.5,58.5,29.83,SSE,156,7.2,11.0,73,0.00,CLR,SKC,0.00,WeatherDisplay:10.37,2013-08-24 10:20:00,
2013-08-24 05:25:00,67.5,58.5,29.83,SSE,149,6.2,11.5,73,0.00,CLR,SKC,0.00,WeatherDisplay:10.37,2013-08-24 10:25:00,
2013-08-24 05:30:00,67.4,58.4,29.83,SSE,148,7.5,9.2,73,0.00,CLR,SKC,0.00,WeatherDisplay:10.37,2013-08-24 10:30:00,
2013-08-24 05:35:00,67.3,58.3,29.83,SSE,152,6.4,9.2,73,0.00,CLR,SKC,0.00,WeatherDisplay:10.37,2013-08-24 10:35:00,
2013-08-24 05:40:00,67.3,58.3,29.84,SSE,153,7.4,11.5,73,0.00,CLR,SKC,0.00,WeatherDisplay:10.37,2013-08-24 10:40:00,
2013-08-24 05:45:00,67.2,58.2,29.84,SSE,152,5.9,8.1,73,0.00,CLR,SKC,0.00,WeatherDisplay:10.37,2013-08-24 10:45:00,
2013-08-24 05:50:00,67.2,58.2,29.84,SSE,150,6.3,11.5,73,0.00,CLR,SKC,0.00,WeatherDisplay:10.37,2013-08-24 10:50:00,
2013-08-24 05:55:00,67.1,58.2,29.84,SSE,153,4.2,6.0,73,0.00,CLR,SKC,0.00,WeatherDisplay:10.37,2013-08-24 10:55:00,
2013-08-24 06:00:00,67.0,58.1,29.84,SSE,155,5.3,7.0,73,0.00,CLR,SKC,0.00,WeatherDisplay:10.37,2013-08-24 11:00:00,
2013-08-24 06:05:00,67.0,58.1,29.84,SSE,161,5.7,8.0,73,0.00,CLR,SKC,0.00,WeatherDisplay:10.37,2013-08-24 11:05:00,
2013-08-24 06:10:00,66.9,58.0,29.84,SSE,163,5.4,8.0,73,0.00,CLR,SKC,0.00,WeatherDisplay:10.37,2013-08-24 11:10:00,
2013-08-24 06:15:00,66.8,57.9,29.84,SSE,163,5.5,8.0,73,0.00,CLR,SKC,0.00,WeatherDisplay:10.37,2013-08-24 11:15:00,
2013-08-24 06:20:00,66.7,57.8,29.85,SSE,163,5.2,7.0,73,0.00,CLR,SKC,0.00,WeatherDisplay:10.37,2013-08-24 11:20:00,
2013-08-24 06:25:00,66.7,57.4,29.85,SSE,163,4.4,6.9,72,0.00,CLR,SKC,0.00,WeatherDisplay:10.37,2013-08-24 11:25:00,
2013-08-24 06:30:00,66.6,57.3,29.85,SSE,167,4.4,7.0,72,0.00,CLR,SKC,0.00,WeatherDisplay:10.37,2013-08-24 11:30:00,
2013-08-24 06:35:00,66.5,57.2,29.85,SSE,167,2.6,6.9,72,0.00,CLR,SKC,0.00,WeatherDisplay:10.37,2013-08-24 11:35:00,
2013-08-24 06:40:00,66.5,57.2,29.85,SSE,167,4.7,8.0,72,0.00,CLR,SKC,0.00,WeatherDisplay:10.37,2013-08-24 11:40:00,
2013-08-24 06:45:00,66.5,57.2,29.85,SSE,167,3.8,5.8,72,0.00,CLR,SKC,0.00,WeatherDisplay:10.37,2013-08-24 11:45:00,
2013-08-24 06:50:00,66.6,57.3,29.85,SSE,167,5.0,9.0,72,0.00,CLR,SKC,0.00,WeatherDisplay:10.37,2013-08-24 11:50:00,
2013-08-24 06:55:00,66.7,57.4,29.85,SSE,167,4.6,6.9,72,0.00,CLR,SKC,0.00,WeatherDisplay:10.37,2013-08-24 11:55:00,
2013-08-24 07:00:00,66.8,57.5,29.85,SSE,164,6.6,10.4,72,0.00,CLR,SKC,0.00,WeatherDisplay:10.37,2013-08-24 12:00:00,
2013-08-24 07:05:00,67.1,57.8,29.85,SSE,148,8.3,10.4,72,0.00,CLR,SKC,0.00,WeatherDisplay:10.37,2013-08-24 12:05:00,
2013-08-24 07:10:00,67.3,58.0,29.85,SSE,160,5.6,9.2,72,0.00,CLR,SKC,0.00,WeatherDisplay:10.37,2013-08-24 12:10:00,
2013-08-24 07:15:00,67.5,58.2,29.85,SSE,157,8.5,12.0,72,0.00,CLR,SKC,0.00,WeatherDisplay:10.37,2013-08-24 12:15:00,
2013-08-24 07:20:00,67.7,58.7,29.85,SSE,157,7.5,12.0,73,0.00,CLR,SKC,0.00,WeatherDisplay:10.37,2013-08-24 12:20:00,
2013-08-24 07:25:00,67.9,58.9,29.85,SSE,167,9.1,12.7,73,0.00,CLR,SKC,0.00,WeatherDisplay:10.37,2013-08-24 12:25:00,
2013-08-24 07:30:00,68.1,59.1,29.85,SSE,165,9.5,15.0,73,0.00,CLR,SKC,0.00,WeatherDisplay:10.37,2013-08-24 12:30:00,
2013-08-24 07:35:00,68.2,59.2,29.85,SSE,165,8.3,12.7,73,0.00,CLR,SKC,0.00,WeatherDisplay:10.37,2013-08-24 12:35:00,
2013-08-24 07:40:00,68.3,59.3,29.85,SSE,165,9.4,12.0,73,0.00,CLR,SKC,0.00,WeatherDisplay:10.37,2013-08-24 12:40:00,
2013-08-24 07:45:00,68.4,59.4,29.85,SSE,155,8.7,12.0,73,0.00,CLR,SKC,0.00,WeatherDisplay:10.37,2013-08-24 12:45:00,
2013-08-24 07:50:00,68.6,59.6,29.85,SSE,160,8.1,12.0,73,0.00,CLR,SKC,0.00,WeatherDisplay:10.37,2013-08-24 12:50:00,
2013-08-24 07:55:00,68.8,59.8,29.85,SSE,161,7.9,14.0,73,0.00,CLR,SKC,0.00,WeatherDisplay:10.37,2013-08-24 12:55:00,
2013-08-24 08:00:00,69.2,60.2,29.85,South,178,8.0,14.0,73,0.00,CLR,SKC,0.00,WeatherDisplay:10.37,2013-08-24 13:00:00,
2013-08-24 08:05:00,69.6,60.9,29.85,South,171,8.4,12.7,74,0.00,CLR,SKC,0.00,WeatherDisplay:10.37,2013-08-24 13:05:00,
2013-08-24 08:10:00,69.9,61.2,29.85,SSE,167,6.7,10.4,74,0.00,CLR,SKC,0.00,WeatherDisplay:10.37,2013-08-24 13:10:00,
2013-08-24 08:15:00,70.3,61.6,29.85,SSE,158,10.2,12.0,74,0.00,CLR,SKC,0.00,WeatherDisplay:10.37,2013-08-24 13:15:00,
2013-08-24 08:20:00,70.5,61.8,29.84,SSE,165,8.3,11.5,74,0.00,CLR,SKC,0.00,WeatherDisplay:10.37,2013-08-24 13:20:00,
2013-08-24 08:25:00,70.8,62.1,29.84,SSE,155,8.9,15.0,74,0.00,CLR,SKC,0.00,WeatherDisplay:10.37,2013-08-24 13:25:00,
2013-08-24 08:30:00,71.2,62.5,29.84,SSE,166,9.7,13.8,74,0.00,CLR,SKC,0.00,WeatherDisplay:10.37,2013-08-24 13:30:00,
2013-08-24 08:35:00,71.4,62.7,29.84,South,178,10.0,15.0,74,0.00,CLR,SKC,0.00,WeatherDisplay:10.37,2013-08-24 13:35:00,
2013-08-24 08:40:00,71.7,63.0,29.84,SSE,161,9.3,13.0,74,0.00,CLR,SKC,0.00,WeatherDisplay:10.37,2013-08-24 13:40:00,
2013-08-24 08:45:00,72.0,63.3,29.84,SSE,161,11.3,16.1,74,0.00,CLR,SKC,0.00,WeatherDisplay:10.37,2013-08-24 13:45:00,
2013-08-24 08:50:00,72.3,63.5,29.84,SSE,148,11.7,16.0,74,0.00,CLR,SKC,0.00,WeatherDisplay:10.37,2013-08-24 13:50:00,
2013-08-24 08:55:00,72.6,64.2,29.84,SSE,164,12.3,16.1,75,0.00,CLR,SKC,0.00,WeatherDisplay:10.37,2013-08-24 13:55:00,
2013-08-24 09:00:00,72.8,64.0,29.83,South,169,10.2,16.1,74,0.00,CLR,SKC,0.00,WeatherDisplay:10.37,2013-08-24 14:00:00,
2013-08-24 09:05:00,73.0,64.6,29.83,SSE,167,11.5,19.6,75,0.00,CLR,SKC,0.00,WeatherDisplay:10.37,2013-08-24 14:05:00,
2013-08-24 09:10:00,72.9,64.5,29.84,SSE,158,12.3,19.0,75,0.00,CLR,SKC,0.00,WeatherDisplay:10.37,2013-08-24 14:10:00,
2013-08-24 09:15:00,73.2,64.4,29.84,SSE,160,9.6,17.3,74,0.00,CLR,SKC,0.00,WeatherDisplay:10.37,2013-08-24 14:15:00,
2013-08-24 09:20:00,73.8,65.0,29.84,SSE,156,8.9,14.0,74,0.00,CLR,SKC,0.00,WeatherDisplay:10.37,2013-08-24 14:20:00,
2013-08-24 09:25:00,73.9,65.5,29.84,SSE,167,13.0,18.4,75,0.00,CLR,SKC,0.00,WeatherDisplay:10.37,2013-08-24 14:25:00,
2013-08-24 09:30:00,74.1,65.3,29.84,SSE,156,9.7,16.1,74,0.00,CLR,SKC,0.00,WeatherDisplay:10.37,2013-08-24 14:30:00,
2013-08-24 09:35:00,74.3,65.9,29.84,South,171,11.3,18.4,75,0.00,CLR,SKC,0.00,WeatherDisplay:10.37,2013-08-24 14:35:00,
2013-08-24 09:40:00,74.7,66.2,29.84,South,169,10.5,17.0,75,0.00,CLR,SKC,0.00,WeatherDisplay:10.37,2013-08-24 14:40:00,
2013-08-24 09:45:00,75.2,66.7,29.84,South,171,10.9,16.0,75,0.00,CLR,SKC,0.00,WeatherDisplay:10.37,2013-08-24 14:45:00,
2013-08-24 09:50:00,75.5,67.0,29.84,South,184,9.5,13.8,75,0.00,CLR,SKC,0.00,WeatherDisplay:10.37,2013-08-24 14:50:00,
2013-08-24 09:55:00,74.9,66.4,29.84,South,178,12.3,17.0,75,0.00,CLR,SKC,0.00,WeatherDisplay:10.37,2013-08-24 14:55:00,
2013-08-24 10:00:00,74.9,66.4,29.84,South,176,11.0,17.0,75,0.00,CLR,SKC,0.00,WeatherDisplay:10.37,2013-08-24 15:00:00,
2013-08-24 10:05:00,75.2,66.7,29.84,South,175,11.1,15.0,75,0.00,SCT,SKC,0.00,WeatherDisplay:10.37,2013-08-24 15:05:00,
2013-08-24 10:10:00,76.2,67.7,29.83,SSE,165,9.1,14.0,75,0.00,SCT,SKC,0.00,WeatherDisplay:10.37,2013-08-24 15:10:00,
2013-08-24 10:15:00,76.4,67.5,29.83,SSE,160,9.1,14.0,74,0.00,SCT,SKC,0.00,WeatherDisplay:10.37,2013-08-24 15:15:00,
2013-08-24 10:20:00,76.8,68.3,29.84,South,171,11.2,14.0,75,0.00,SCT,SKC,0.00,WeatherDisplay:10.37,2013-08-24 15:20:00,
2013-08-24 10:25:00,77.2,68.7,29.83,SSE,161,12.6,15.0,75,0.00,SCT,SKC,0.00,WeatherDisplay:10.37,2013-08-24 15:25:00,
2013-08-24 10:30:00,76.9,68.4,29.83,South,175,9.7,13.0,75,0.00,SCT,SKC,0.00,WeatherDisplay:10.37,2013-08-24 15:30:00,
2013-08-24 10:35:00,77.0,68.1,29.83,SSE,165,7.2,15.0,74,0.00,SCT,SKC,0.00,WeatherDisplay:10.37,2013-08-24 15:35:00,
2013-08-24 10:40:00,77.7,68.7,29.83,South,176,6.2,12.7,74,0.00,SCT,SKC,0.00,WeatherDisplay:10.37,2013-08-24 15:40:00,
2013-08-24 10:45:00,78.2,69.2,29.83,South,186,10.0,13.8,74,0.00,SCT,SKC,0.00,WeatherDisplay:10.37,2013-08-24 15:45:00,
2013-08-24 10:50:00,78.0,69.4,29.83,SSE,160,11.6,17.0,75,0.00,SCT,SKC,0.00,WeatherDisplay:10.37,2013-08-24 15:50:00,
2013-08-24 10:55:00,78.0,69.4,29.83,South,171,8.8,12.0,75,0.00,SCT,SKC,0.00,WeatherDisplay:10.37,2013-08-24 15:55:00,
2013-08-24 11:00:00,78.6,69.6,29.83,SSE,167,6.7,13.8,74,0.00,SCT,SKC,0.00,WeatherDisplay:10.37,2013-08-24 16:00:00,
2013-08-24 11:05:00,79.1,70.1,29.82,South,175,10.3,14.0,74,0.00,SCT,SKC,0.00,WeatherDisplay:10.37,2013-08-24 16:05:00,
2013-08-24 11:10:00,79.5,70.5,29.83,South,176,9.1,15.0,74,0.00,SCT,SKC,0.00,WeatherDisplay:10.37,2013-08-24 16:10:00,
2013-08-24 11:15:00,79.7,70.7,29.82,South,176,10.0,16.1,74,0.00,SCT,SKC,0.00,WeatherDisplay:10.37,2013-08-24 16:15:00,
2013-08-24 11:20:00,80.0,71.0,29.82,SSE,167,10.6,15.0,74,0.00,SCT,SKC,0.00,WeatherDisplay:10.37,2013-08-24 16:20:00,
2013-08-24 11:25:00,80.4,71.3,29.82,South,178,5.5,12.7,74,0.00,CLR,SKC,0.00,WeatherDisplay:10.37,2013-08-24 16:25:00,
2013-08-24 11:30:00,80.7,71.6,29.82,SSE,166,6.6,11.5,74,0.00,CLR,SKC,0.00,WeatherDisplay:10.37,2013-08-24 16:30:00,
2013-08-24 11:35:00,80.9,71.4,29.82,SSW,204,9.6,17.3,73,0.00,CLR,SKC,0.00,WeatherDisplay:10.37,2013-08-24 16:35:00,
2013-08-24 11:40:00,80.9,71.4,29.81,South,186,8.5,13.0,73,0.00,CLR,SKC,0.00,WeatherDisplay:10.37,2013-08-24 16:40:00,
2013-08-24 11:45:00,81.1,72.0,29.81,SSE,160,10.1,14.0,74,0.00,CLR,SKC,0.00,WeatherDisplay:10.37,2013-08-24 16:45:00,
2013-08-24 11:50:00,81.4,71.9,29.81,South,171,11.0,16.0,73,0.00,CLR,SKC,0.00,WeatherDisplay:10.37,2013-08-24 16:50:00,
2013-08-24 11:55:00,81.4,71.9,29.81,South,169,13.5,17.0,73,0.00,CLR,SKC,0.00,WeatherDisplay:10.37,2013-08-24 16:55:00,
2013-08-24 12:00:00,81.6,72.5,29.81,SSE,168,9.1,13.8,74,0.00,CLR,SKC,0.00,WeatherDisplay:10.37,2013-08-24 17:00:00,
2013-08-24 12:05:00,81.7,72.2,29.80,SSE,166,11.8,18.4,73,0.00,CLR,SKC,0.00,WeatherDisplay:10.37,2013-08-24 17:05:00,
2013-08-24 12:10:00,81.5,72.0,29.80,South,175,9.9,16.1,73,0.00,CLR,SKC,0.00,WeatherDisplay:10.37,2013-08-24 17:10:00,
2013-08-24 12:15:00,81.8,72.3,29.80,South,186,13.1,20.0,73,0.00,CLR,SKC,0.00,WeatherDisplay:10.37,2013-08-24 17:15:00,
2013-08-24 12:20:00,81.8,72.3,29.80,South,178,12.3,18.4,73,0.00,CLR,SKC,0.00,WeatherDisplay:10.37,2013-08-24 17:20:00,
2013-08-24 12:25:00,81.9,72.4,29.80,SSE,168,12.2,18.0,73,0.00,CLR,SKC,0.00,WeatherDisplay:10.37,2013-08-24 17:25:00,
2013-08-24 12:30:00,82.2,72.7,29.79,SSE,164,10.1,16.1,73,0.00,CLR,SKC,0.00,WeatherDisplay:10.37,2013-08-24 17:30:00,
2013-08-24 12:35:00,82.4,72.9,29.79,South,169,11.0,18.4,73,0.00,CLR,SKC,0.00,WeatherDisplay:10.37,2013-08-24 17:35:00,
2013-08-24 12:40:00,82.4,72.9,29.79,South,175,11.4,16.0,73,0.00,CLR,SKC,0.00,WeatherDisplay:10.37,2013-08-24 17:40:00,
2013-08-24 12:45:00,82.6,73.1,29.79,South,173,9.2,20.7,73,0.00,CLR,SKC,0.00,WeatherDisplay:10.37,2013-08-24 17:45:00,
2013-08-24 12:50:00,82.8,73.3,29.79,SSE,164,12.0,18.4,73,0.00,CLR,SKC,0.00,WeatherDisplay:10.37,2013-08-24 17:50:00,
2013-08-24 12:55:00,83.1,73.5,29.78,South,172,8.4,17.3,73,0.00,CLR,SKC,0.00,WeatherDisplay:10.37,2013-08-24 17:55:00,
2013-08-24 13:00:00,83.3,73.7,29.78,South,169,11.2,17.3,73,0.00,CLR,SKC,0.00,WeatherDisplay:10.37,2013-08-24 18:00:00,
2013-08-24 13:05:00,83.2,73.6,29.78,South,186,13.1,17.0,73,0.00,SCT,SKC,0.00,WeatherDisplay:10.37,2013-08-24 18:05:00,
2013-08-24 13:10:00,83.0,73.4,29.78,SSE,164,9.1,15.0,73,0.00,SCT,SKC,0.00,WeatherDisplay:10.37,2013-08-24 18:10:00,
2013-08-24 13:15:00,83.0,73.4,29.78,South,174,11.8,20.7,73,0.00,SCT,SKC,0.00,WeatherDisplay:10.37,2013-08-24 18:15:00,
2013-08-24 13:20:00,82.9,73.8,29.78,SSE,149,11.6,18.4,74,0.00,SCT,SKC,0.00,WeatherDisplay:10.37,2013-08-24 18:20:00,
2013-08-24 13:25:00,83.1,73.1,29.78,SSE,165,10.0,16.0,72,0.00,CLR,SKC,0.00,WeatherDisplay:10.37,2013-08-24 18:25:00,
2013-08-24 13:30:00,83.2,73.6,29.78,SSE,152,14.0,19.6,73,0.00,CLR,SKC,0.00,WeatherDisplay:10.37,2013-08-24 18:30:00,
2013-08-24 13:35:00,83.6,73.6,29.78,SSE,162,11.7,18.4,72,0.00,CLR,SKC,0.00,WeatherDisplay:10.37,2013-08-24 18:35:00,
2013-08-24 13:40:00,83.8,73.8,29.78,SSE,166,12.8,18.0,72,0.00,CLR,SKC,0.00,WeatherDisplay:10.37,2013-08-24 18:40:00,
2013-08-24 13:45:00,84.0,74.0,29.77,South,182,8.1,15.0,72,0.00,CLR,SKC,0.00,WeatherDisplay:10.37,2013-08-24 18:45:00,
2013-08-24 13:50:00,84.3,74.3,29.77,SE,142,15.2,18.4,72,0.00,CLR,SKC,0.00,WeatherDisplay:10.37,2013-08-24 18:50:00,
2013-08-24 13:55:00,84.4,74.4,29.77,SSE,168,8.5,17.3,72,0.00,CLR,SKC,0.00,WeatherDisplay:10.37,2013-08-24 18:55:00,
2013-08-24 14:00:00,84.4,74.0,29.77,South,171,11.4,17.3,71,0.00,CLR,SKC,0.00,WeatherDisplay:10.37,2013-08-24 19:00:00,
2013-08-24 14:05:00,84.2,73.8,29.77,SSW,200,14.3,20.0,71,0.00,CLR,SKC,0.00,WeatherDisplay:10.37,2013-08-24 19:05:00,
2013-08-24 14:10:00,84.1,73.7,29.77,SSE,166,10.5,17.3,71,0.00,CLR,SKC,0.00,WeatherDisplay:10.37,2013-08-24 19:10:00,
2013-08-24 14:15:00,84.0,73.2,29.77,South,185,10.3,20.7,70,0.00,CLR,SKC,0.00,WeatherDisplay:10.37,2013-08-24 19:15:00,
2013-08-24 14:20:00,83.8,73.4,29.77,SSE,155,13.4,18.0,71,0.00,CLR,SKC,0.00,WeatherDisplay:10.37,2013-08-24 19:20:00,
2013-08-24 14:25:00,83.4,72.6,29.77,South,179,13.8,19.0,70,0.00,CLR,SKC,0.00,WeatherDisplay:10.37,2013-08-24 19:25:00,
2013-08-24 14:30:00,83.5,73.1,29.77,South,170,15.1,21.0,71,0.00,CLR,SKC,0.00,WeatherDisplay:10.37,2013-08-24 19:30:00,
2013-08-24 14:35:00,83.8,73.8,29.77,South,188,9.0,13.0,72,0.00,CLR,SKC,0.00,WeatherDisplay:10.37,2013-08-24 19:35:00,
2013-08-24 14:40:00,84.1,73.3,29.77,South,173,11.9,15.0,70,0.00,CLR,SKC,0.00,WeatherDisplay:10.37,2013-08-24 19:40:00,
2013-08-24 14:45:00,84.4,74.4,29.77,SSE,164,11.2,18.0,72,0.00,CLR,SKC,0.00,WeatherDisplay:10.37,2013-08-24 19:45:00,
2013-08-24 14:50:00,84.6,73.7,29.77,SW,215,11.5,16.1,70,0.00,CLR,SKC,0.00,WeatherDisplay:10.37,2013-08-24 19:50:00,
2013-08-24 14:55:00,84.6,73.7,29.77,South,175,13.4,20.0,70,0.00,CLR,SKC,0.00,WeatherDisplay:10.37,2013-08-24 19:55:00,
2013-08-24 15:00:00,84.1,72.8,29.77,South,180,12.3,18.4,69,0.00,CLR,SKC,0.00,WeatherDisplay:10.37,2013-08-24 20:00:00,
2013-08-24 15:05:00,83.4,73.0,29.77,South,188,11.9,18.0,71,0.00,CLR,SKC,0.00,WeatherDisplay:10.37,2013-08-24 20:05:00,
2013-08-24 15:10:00,83.1,72.7,29.77,South,170,11.7,18.4,71,0.00,CLR,SKC,0.00,WeatherDisplay:10.37,2013-08-24 20:10:00,
2013-08-24 15:15:00,83.0,73.0,29.77,South,183,11.7,18.4,72,0.00,CLR,SKC,0.00,WeatherDisplay:10.37,2013-08-24 20:15:00,
2013-08-24 15:20:00,82.4,72.5,29.77,South,178,12.1,18.4,72,0.00,CLR,SKC,0.00,WeatherDisplay:10.37,2013-08-24 20:20:00,
2013-08-24 15:25:00,82.0,72.5,29.77,SSE,164,9.6,14.0,73,0.00,CLR,SKC,0.00,WeatherDisplay:10.37,2013-08-24 20:25:00,
2013-08-24 15:30:00,81.8,72.3,29.77,South,186,9.6,16.1,73,0.00,CLR,SKC,0.00,WeatherDisplay:10.37,2013-08-24 20:30:00,
2013-08-24 15:35:00,81.6,72.1,29.77,South,173,12.4,16.0,73,0.00,CLR,SKC,0.00,WeatherDisplay:10.37,2013-08-24 20:35:00,
2013-08-24 15:40:00,81.5,72.0,29.77,SSE,157,11.1,15.0,73,0.00,CLR,SKC,0.00,WeatherDisplay:10.37,2013-08-24 20:40:00,
2013-08-24 15:45:00,81.6,72.1,29.77,South,178,11.9,16.1,73,0.00,CLR,SKC,0.00,WeatherDisplay:10.37,2013-08-24 20:45:00,
2013-08-24 15:50:00,81.6,72.1,29.77,South,169,8.0,12.7,73,0.00,CLR,SKC,0.00,WeatherDisplay:10.37,2013-08-24 20:50:00,
2013-08-24 15:55:00,81.6,72.1,29.77,SSE,158,7.1,11.5,73,0.00,CLR,SKC,0.00,WeatherDisplay:10.37,2013-08-24 20:55:00,
2013-08-24 16:00:00,81.7,72.2,29.77,South,176,10.1,14.0,73,0.00,CLR,SKC,0.00,WeatherDisplay:10.37,2013-08-24 21:00:00,
2013-08-24 16:05:00,81.7,72.2,29.77,South,179,13.9,18.0,73,0.00,CLR,SKC,0.00,WeatherDisplay:10.37,2013-08-24 21:05:00,
2013-08-24 16:10:00,81.6,72.1,29.77,South,171,8.5,15.0,73,0.00,CLR,SKC,0.00,WeatherDisplay:10.37,2013-08-24 21:10:00,
2013-08-24 16:15:00,81.6,72.5,29.76,South,175,9.0,14.0,74,0.00,CLR,SKC,0.00,WeatherDisplay:10.37,2013-08-24 21:15:00,
2013-08-24 16:20:00,81.6,72.1,29.76,South,186,8.7,16.1,73,0.00,CLR,SKC,0.00,WeatherDisplay:10.37,2013-08-24 21:20:00,
2013-08-24 16:25:00,81.8,72.7,29.76,South,174,12.5,17.0,74,0.00,CLR,SKC,0.00,WeatherDisplay:10.37,2013-08-24 21:25:00,
2013-08-24 16:30:00,82.1,72.6,29.76,South,171,11.0,20.0,73,0.00,CLR,SKC,0.00,WeatherDisplay:10.37,2013-08-24 21:30:00,
2013-08-24 16:35:00,82.3,72.8,29.76,SSE,161,10.5,16.0,73,0.00,CLR,SKC,0.00,WeatherDisplay:10.37,2013-08-24 21:35:00,
2013-08-24 16:40:00,82.3,72.8,29.76,SSE,165,10.2,18.4,73,0.00,CLR,SKC,0.00,WeatherDisplay:10.37,2013-08-24 21:40:00,
2013-08-24 16:45:00,82.1,72.6,29.76,South,171,11.3,17.3,73,0.00,CLR,SKC,0.00,WeatherDisplay:10.37,2013-08-24 21:45:00,
2013-08-24 16:50:00,81.9,72.4,29.76,South,183,13.5,18.4,73,0.00,CLR,SKC,0.00,WeatherDisplay:10.37,2013-08-24 21:50:00,
2013-08-24 16:55:00,81.7,72.6,29.76,SSE,168,11.4,16.0,74,0.00,CLR,SKC,0.00,WeatherDisplay:10.37,2013-08-24 21:55:00,
2013-08-24 17:00:00,81.6,72.5,29.76,South,176,8.1,11.5,74,0.00,CLR,SKC,0.00,WeatherDisplay:10.37,2013-08-24 22:00:00,
2013-08-24 17:05:00,81.5,72.4,29.76,SSE,156,12.9,17.3,74,0.00,CLR,SKC,0.00,WeatherDisplay:10.37,2013-08-24 22:05:00,
2013-08-24 17:10:00,81.6,72.5,29.76,South,170,11.8,19.6,74,0.00,CLR,SKC,0.00,WeatherDisplay:10.37,2013-08-24 22:10:00,
2013-08-24 17:15:00,81.6,72.5,29.76,South,179,10.4,17.0,74,0.00,CLR,SKC,0.00,WeatherDisplay:10.37,2013-08-24 22:15:00,
2013-08-24 17:20:00,81.6,72.5,29.76,South,171,15.2,20.7,74,0.00,CLR,SKC,0.00,WeatherDisplay:10.37,2013-08-24 22:20:00,
2013-08-24 17:25:00,81.5,72.4,29.76,SE,142,10.7,15.0,74,0.00,CLR,SKC,0.00,WeatherDisplay:10.37,2013-08-24 22:25:00,
2013-08-24 17:30:00,81.5,72.4,29.75,South,173,15.2,21.0,74,0.00,CLR,SKC,0.00,WeatherDisplay:10.37,2013-08-24 22:30:00,
2013-08-24 17:35:00,81.6,72.5,29.75,SSE,157,13.9,19.6,74,0.00,CLR,SKC,0.00,WeatherDisplay:10.37,2013-08-24 22:35:00,
2013-08-24 17:40:00,81.3,72.2,29.75,SSE,167,17.1,22.0,74,0.00,CLR,SKC,0.00,WeatherDisplay:10.37,2013-08-24 22:40:00,
2013-08-24 17:45:00,81.1,72.0,29.75,South,169,9.9,17.3,74,0.00,CLR,SKC,0.00,WeatherDisplay:10.37,2013-08-24 22:45:00,
2013-08-24 17:50:00,81.0,71.9,29.75,SSE,166,11.5,14.0,74,0.00,CLR,SKC,0.00,WeatherDisplay:10.37,2013-08-24 22:50:00,
2013-08-24 17:55:00,81.1,72.0,29.75,South,174,13.0,18.0,74,0.00,CLR,SKC,0.00,WeatherDisplay:10.37,2013-08-24 22:55:00,
2013-08-24 18:00:00,81.0,71.9,29.75,SSE,163,9.5,16.1,74,0.00,CLR,SKC,0.00,WeatherDisplay:10.37,2013-08-24 23:00:00,
2013-08-24 18:05:00,80.9,71.8,29.75,South,175,10.6,13.0,74,0.00,CLR,SKC,0.00,WeatherDisplay:10.37,2013-08-24 23:05:00,
2013-08-24 18:10:00,80.8,71.7,29.75,SSE,157,9.7,17.3,74,0.00,CLR,SKC,0.00,WeatherDisplay:10.37,2013-08-24 23:10:00,
2013-08-24 18:15:00,80.7,71.6,29.75,South,180,10.5,14.0,74,0.00,CLR,SKC,0.00,WeatherDisplay:10.37,2013-08-24 23:15:00,
2013-08-24 18:20:00,80.5,71.4,29.75,South,169,6.9,15.0,74,0.00,CLR,SKC,0.00,WeatherDisplay:10.37,2013-08-24 23:20:00,
2013-08-24 18:25:00,80.5,71.4,29.75,SSE,166,10.0,13.8,74,0.00,CLR,SKC,0.00,WeatherDisplay:10.37,2013-08-24 23:25:00,
2013-08-24 18:30:00,80.3,71.3,29.75,SSE,166,10.9,15.0,74,0.00,CLR,SKC,0.00,WeatherDisplay:10.37,2013-08-24 23:30:00,
2013-08-24 18:35:00,80.3,71.3,29.75,SSE,161,10.1,14.0,74,0.00,CLR,SKC,0.00,WeatherDisplay:10.37,2013-08-24 23:35:00,
2013-08-24 18:40:00,80.3,71.3,29.75,SSE,157,10.5,15.0,74,0.00,CLR,SKC,0.00,WeatherDisplay:10.37,2013-08-24 23:40:00,
2013-08-24 18:45:00,80.2,71.2,29.75,South,169,9.4,16.0,74,0.00,CLR,SKC,0.00,WeatherDisplay:10.37,2013-08-24 23:45:00,
2013-08-24 18:50:00,80.2,71.2,29.75,SSE,158,9.8,14.0,74,0.00,CLR,SKC,0.00,WeatherDisplay:10.37,2013-08-24 23:50:00,
2013-08-24 18:55:00,80.2,71.2,29.75,SSE,153,8.9,16.1,74,0.00,CLR,SKC,0.00,WeatherDisplay:10.37,2013-08-24 23:55:00,
2013-08-24 19:00:00,80.1,71.1,29.74,SSE,151,11.0,13.0,74,0.00,CLR,SKC,0.00,WeatherDisplay:10.37,2013-08-25 00:00:00,
2013-08-24 19:05:00,80.0,71.0,29.74,SSE,152,10.8,15.0,74,0.00,CLR,SKC,0.00,WeatherDisplay:10.37,2013-08-25 00:05:00,
2013-08-24 19:10:00,80.0,71.0,29.74,South,173,11.8,16.1,74,0.00,CLR,SKC,0.00,WeatherDisplay:10.37,2013-08-25 00:10:00,
2013-08-24 19:15:00,79.9,70.9,29.74,SSE,157,10.1,14.0,74,0.00,CLR,SKC,0.00,WeatherDisplay:10.37,2013-08-25 00:15:00,
2013-08-24 19:20:00,79.9,70.9,29.74,SSE,153,11.2,14.0,74,0.00,CLR,SKC,0.00,WeatherDisplay:10.37,2013-08-25 00:20:00,
2013-08-24 19:25:00,79.9,70.9,29.74,SE,143,9.7,14.0,74,0.00,CLR,SKC,0.00,WeatherDisplay:10.37,2013-08-25 00:25:00,
2013-08-24 19:30:00,79.8,70.8,29.74,SSE,157,9.3,15.0,74,0.00,CLR,SKC,0.00,WeatherDisplay:10.37,2013-08-25 00:30:00,
2013-08-24 19:35:00,79.7,70.7,29.74,SSE,162,9.2,13.0,74,0.00,CLR,SKC,0.00,WeatherDisplay:10.37,2013-08-25 00:35:00,
2013-08-24 19:40:00,79.6,70.6,29.74,South,171,7.8,13.8,74,0.00,CLR,SKC,0.00,WeatherDisplay:10.37,2013-08-25 00:40:00,
2013-08-24 19:45:00,79.4,70.4,29.74,SSE,161,9.2,18.4,74,0.00,CLR,SKC,0.00,WeatherDisplay:10.37,2013-08-25 00:45:00,
2013-08-24 19:50:00,79.4,70.4,29.74,SSE,161,10.1,13.8,74,0.00,CLR,SKC,0.00,WeatherDisplay:10.37,2013-08-25 00:50:00,
2013-08-24 19:55:00,79.3,70.3,29.73,South,172,8.4,12.7,74,0.00,CLR,SKC,0.00,WeatherDisplay:10.37,2013-08-25 00:55:00,
2013-08-24 20:00:00,79.2,70.2,29.73,SSE,156,11.6,15.0,74,0.00,CLR,SKC,0.00,WeatherDisplay:10.37,2013-08-25 01:00:00,
2013-08-24 20:05:00,79.2,70.2,29.74,SSE,158,7.9,12.7,74,0.00,CLR,SKC,0.00,WeatherDisplay:10.37,2013-08-25 01:05:00,
2013-08-24 20:10:00,79.1,70.1,29.74,South,184,9.2,15.0,74,0.00,CLR,SKC,0.00,WeatherDisplay:10.37,2013-08-25 01:10:00,
2013-08-24 20:15:00,79.0,70.0,29.74,SSE,160,9.4,16.1,74,0.00,CLR,SKC,0.00,WeatherDisplay:10.37,2013-08-25 01:15:00,
2013-08-24 20:20:00,78.9,69.9,29.74,SSE,165,9.6,12.7,74,0.00,CLR,SKC,0.00,WeatherDisplay:10.37,2013-08-25 01:20:00,
2013-08-24 20:25:00,78.8,69.8,29.73,SSE,158,10.7,15.0,74,0.00,CLR,SKC,0.00,WeatherDisplay:10.37,2013-08-25 01:25:00,
2013-08-24 20:30:00,78.8,69.8,29.73,South,172,8.9,12.7,74,0.00,CLR,SKC,0.00,WeatherDisplay:10.37,2013-08-25 01:30:00,
2013-08-24 20:35:00,78.7,69.7,29.74,South,169,8.7,13.8,74,0.00,CLR,SKC,0.00,WeatherDisplay:10.37,2013-08-25 01:35:00,
2013-08-24 20:40:00,78.7,69.7,29.74,South,175,10.6,16.1,74,0.00,CLR,SKC,0.00,WeatherDisplay:10.37,2013-08-25 01:40:00,
2013-08-24 20:45:00,78.6,69.6,29.74,South,170,9.8,14.0,74,0.00,CLR,SKC,0.00,WeatherDisplay:10.37,2013-08-25 01:45:00,
2013-08-24 20:50:00,78.4,69.4,29.74,SSE,167,8.1,12.7,74,0.00,CLR,SKC,0.00,WeatherDisplay:10.37,2013-08-25 01:50:00,
2013-08-24 20:55:00,78.4,69.4,29.75,South,175,9.6,13.8,74,0.00,CLR,SKC,0.00,WeatherDisplay:10.37,2013-08-25 01:55:00,
2013-08-24 21:00:00,78.4,69.4,29.75,SSE,167,10.7,16.1,74,0.00,CLR,SKC,0.00,WeatherDisplay:10.37,2013-08-25 02:00:00,
2013-08-24 21:05:00,78.4,69.4,29.75,SSE,163,9.7,14.0,74,0.00,CLR,SKC,0.00,WeatherDisplay:10.37,2013-08-25 02:05:00,
2013-08-24 21:10:00,78.5,69.5,29.75,South,169,8.3,17.3,74,0.00,CLR,SKC,0.00,WeatherDisplay:10.37,2013-08-25 02:10:00,
2013-08-24 21:15:00,78.4,69.4,29.75,South,178,12.2,16.1,74,0.00,CLR,SKC,0.00,WeatherDisplay:10.37,2013-08-25 02:15:00,
2013-08-24 21:20:00,78.4,69.4,29.75,SSE,168,11.6,17.3,74,0.00,CLR,SKC,0.00,WeatherDisplay:10.37,2013-08-25 02:20:00,
2013-08-24 21:25:00,78.3,69.3,29.75,South,171,10.2,15.0,74,0.00,CLR,SKC,0.00,WeatherDisplay:10.37,2013-08-25 02:25:00,
2013-08-24 21:30:00,78.1,69.1,29.75,SSE,161,13.0,16.1,74,0.00,CLR,SKC,0.00,WeatherDisplay:10.37,2013-08-25 02:30:00,
2013-08-24 21:35:00,78.1,68.7,29.75,SSE,157,9.5,13.0,73,0.00,CLR,SKC,0.00,WeatherDisplay:10.37,2013-08-25 02:35:00,
2013-08-24 21:40:00,78.0,69.0,29.75,South,170,12.3,17.3,74,0.00,CLR,SKC,0.00,WeatherDisplay:10.37,2013-08-25 02:40:00,
2013-08-24 21:45:00,77.9,68.5,29.75,SSE,166,10.0,12.7,73,0.00,CLR,SKC,0.00,WeatherDisplay:10.37,2013-08-25 02:45:00,
2013-08-24 21:50:00,77.8,68.4,29.75,South,182,9.0,13.0,73,0.00,CLR,SKC,0.00,WeatherDisplay:10.37,2013-08-25 02:50:00,
2013-08-24 21:55:00,77.6,68.3,29.75,South,189,8.8,15.0,73,0.00,CLR,SKC,0.00,WeatherDisplay:10.37,2013-08-25 02:55:00,
2013-08-24 22:00:00,77.5,68.2,29.75,South,175,9.0,13.8,73,0.00,CLR,SKC,0.00,WeatherDisplay:10.37,2013-08-25 03:00:00,
2013-08-24 22:05:00,77.4,68.1,29.75,SSE,166,10.1,13.8,73,0.00,CLR,SKC,0.00,WeatherDisplay:10.37,2013-08-25 03:05:00,
2013-08-24 22:10:00,77.3,68.0,29.75,South,172,9.9,15.0,73,0.00,CLR,SKC,0.00,WeatherDisplay:10.37,2013-08-25 03:10:00,
2013-08-24 22:15:00,77.2,67.9,29.75,SSE,160,10.9,15.0,73,0.00,CLR,SKC,0.00,WeatherDisplay:10.37,2013-08-25 03:15:00,
2013-08-24 22:20:00,77.1,67.8,29.75,SSE,163,11.0,15.0,73,0.00,CLR,SKC,0.00,WeatherDisplay:10.37,2013-08-25 03:20:00,
2013-08-24 22:25:00,77.1,67.8,29.75,SSE,154,10.9,16.1,73,0.00,CLR,SKC,0.00,WeatherDisplay:10.37,2013-08-25 03:25:00,
2013-08-24 22:30:00,77.1,67.8,29.75,SSE,166,9.8,15.0,73,0.00,CLR,SKC,0.00,WeatherDisplay:10.37,2013-08-25 03:30:00,
2013-08-24 22:35:00,77.1,67.8,29.75,SSE,155,8.0,13.8,73,0.00,CLR,SKC,0.00,WeatherDisplay:10.37,2013-08-25 03:35:00,
2013-08-24 22:40:00,77.1,67.8,29.75,SSE,165,9.5,13.8,73,0.00,CLR,SKC,0.00,WeatherDisplay:10.37,2013-08-25 03:40:00,
2013-08-24 22:45:00,77.1,67.8,29.75,South,171,10.5,17.3,73,0.00,CLR,SKC,0.00,WeatherDisplay:10.37,2013-08-25 03:45:00,
2013-08-24 22:50:00,77.1,67.8,29.75,SSE,168,8.0,13.8,73,0.00,CLR,SKC,0.00,WeatherDisplay:10.37,2013-08-25 03:50:00,
2013-08-24 22:55:00,77.0,67.7,29.75,South,171,9.8,17.3,73,0.00,CLR,SKC,0.00,WeatherDisplay:10.37,2013-08-25 03:55:00,
2013-08-24 23:00:00,77.0,67.7,29.75,South,173,10.1,16.0,73,0.00,CLR,SKC,0.00,WeatherDisplay:10.37,2013-08-25 04:00:00,
2013-08-24 23:01:00,77.1,67.8,29.75,South,176,11.6,16.1,73,0.00,CLR,SKC,0.00,WeatherDisplay:10.37,2013-08-25 04:01:00,
2013-08-24 23:04:00,77.1,67.8,29.75,South,182,10.7,16.1,73,0.00,CLR,SKC,0.00,WeatherDisplay:10.37,2013-08-25 04:04:00,
2013-08-24 23:05:00,77.1,67.8,29.75,South,175,11.1,16.1,73,0.00,CLR,SKC,0.00,WeatherDisplay:10.37,2013-08-25 04:05:00,
2013-08-24 23:06:00,77.1,67.8,29.75,South,177,10.0,17.0,73,0.00,CLR,SKC,0.00,WeatherDisplay:10.37,2013-08-25 04:06:00,
2013-08-24 23:08:00,77.1,67.8,29.75,South,171,10.7,16.1,73,0.00,CLR,SKC,0.00,WeatherDisplay:10.37,2013-08-25 04:08:00,
2013-08-24 23:13:00,77.0,67.7,29.75,South,170,11.1,15.0,73,0.00,CLR,SKC,0.00,WeatherDisplay:10.37,2013-08-25 04:13:00,
2013-08-24 23:18:00,77.0,67.7,29.75,South,173,10.8,17.3,73,0.00,CLR,SKC,0.00,WeatherDisplay:10.37,2013-08-25 04:18:00,
2013-08-24 23:23:00,77.0,67.7,29.75,SSE,158,8.5,16.0,73,0.00,CLR,SKC,0.00,WeatherDisplay:10.37,2013-08-25 04:23:00,
2013-08-24 23:28:00,77.0,67.7,29.75,South,172,9.0,15.0,73,0.00,CLR,SKC,0.00,WeatherDisplay:10.37,2013-08-25 04:28:00,
2013-08-24 23:33:00,76.9,67.6,29.76,South,176,8.9,12.7,73,0.00,CLR,SKC,0.00,WeatherDisplay:10.37,2013-08-25 04:33:00,
2013-08-24 23:38:00,76.7,67.4,29.76,South,173,8.5,17.3,73,0.00,CLR,SKC,0.00,WeatherDisplay:10.37,2013-08-25 04:38:00,
2013-08-24 23:43:00,76.7,67.4,29.76,South,175,10.9,14.0,73,0.00,CLR,SKC,0.00,WeatherDisplay:10.37,2013-08-25 04:43:00,
2013-08-24 23:48:00,76.6,67.3,29.76,South,186,9.7,13.0,73,0.00,CLR,SKC,0.00,WeatherDisplay:10.37,2013-08-25 04:48:00,
2013-08-24 23:53:00,76.6,67.3,29.76,South,175,9.3,13.0,73,0.00,CLR,SKC,0.00,WeatherDisplay:10.37,2013-08-25 04:53:00,
2013-08-24 23:58:00,76.5,67.2,29.76,South,174,9.7,14.0,73,0.00,CLR,SKC,0.00,WeatherDisplay:10.37,2013-08-25 04:58:00,